sensor_id;sensor_type;location;lat;lon;timestamp;P1;durP1;ratioP1;P2;durP2;ratioP2
34639;SDS011;22600;48.186;11.526;2022-08-01T00:00:36;4.80;;;4.00;;
34639;SDS011;22600;48.186;11.526;2022-08-01T00:03:02;5.78;;;3.53;;
34639;SDS011;22600;48.186;11.526;2022-08-01T00:05:28;5.45;;;3.60;;
34639;SDS011;22600;48.186;11.526;2022-08-01T00:07:53;5.13;;;3.83;;
34639;SDS011;22600;48.186;11.526;2022-08-01T00:10:19;3.97;;;3.42;;
34639;SDS011;22600;48.186;11.526;2022-08-01T00:12:45;5.00;;;3.72;;
34639;SDS011;22600;48.186;11.526;2022-08-01T00:15:12;4.68;;;3.60;;
34639;SDS011;22600;48.186;11.526;2022-08-01T00:17:39;3.97;;;3.50;;
34639;SDS011;22600;48.186;11.526;2022-08-01T00:20:05;4.32;;;3.58;;
34639;SDS011;22600;48.186;11.526;2022-08-01T00:22:33;3.92;;;3.40;;
34639;SDS011;22600;48.186;11.526;2022-08-01T00:24:59;3.67;;;3.35;;
34639;SDS011;22600;48.186;11.526;2022-08-01T00:27:24;3.95;;;3.55;;
34639;SDS011;22600;48.186;11.526;2022-08-01T00:29:50;5.03;;;3.55;;
34639;SDS011;22600;48.186;11.526;2022-08-01T00:32:16;3.95;;;3.53;;
34639;SDS011;22600;48.186;11.526;2022-08-01T00:34:41;3.88;;;3.42;;
34639;SDS011;22600;48.186;11.526;2022-08-01T00:37:07;4.32;;;3.40;;
34639;SDS011;22600;48.186;11.526;2022-08-01T00:39:32;3.67;;;3.35;;
34639;SDS011;22600;48.186;11.526;2022-08-01T00:41:59;4.15;;;3.33;;
34639;SDS011;22600;48.186;11.526;2022-08-01T00:44:24;3.70;;;3.33;;
34639;SDS011;22600;48.186;11.526;2022-08-01T00:46:50;4.65;;;3.33;;
34639;SDS011;22600;48.186;11.526;2022-08-01T00:49:17;4.75;;;3.30;;
34639;SDS011;22600;48.186;11.526;2022-08-01T00:51:43;4.25;;;3.42;;
34639;SDS011;22600;48.186;11.526;2022-08-01T00:54:08;3.80;;;3.30;;
34639;SDS011;22600;48.186;11.526;2022-08-01T00:56:34;3.80;;;3.22;;
34639;SDS011;22600;48.186;11.526;2022-08-01T00:59:00;4.32;;;3.30;;
34639;SDS011;22600;48.186;11.526;2022-08-01T01:01:25;5.32;;;3.63;;
34639;SDS011;22600;48.186;11.526;2022-08-01T01:03:51;4.13;;;3.50;;
34639;SDS011;22600;48.186;11.526;2022-08-01T01:06:21;4.30;;;3.30;;
34639;SDS011;22600;48.186;11.526;2022-08-01T01:08:58;3.83;;;3.38;;
34639;SDS011;22600;48.186;11.526;2022-08-01T01:14:09;3.97;;;3.35;;
34639;SDS011;22600;48.186;11.526;2022-08-01T01:16:41;4.00;;;3.03;;
34639;SDS011;22600;48.186;11.526;2022-08-01T01:19:10;3.72;;;3.30;;
34639;SDS011;22600;48.186;11.526;2022-08-01T01:21:54;4.10;;;3.28;;
34639;SDS011;22600;48.186;11.526;2022-08-01T01:24:40;4.90;;;3.40;;
34639;SDS011;22600;48.186;11.526;2022-08-01T01:27:28;5.22;;;3.55;;
34639;SDS011;22600;48.186;11.526;2022-08-01T01:30:18;5.43;;;3.40;;
34639;SDS011;22600;48.186;11.526;2022-08-01T01:32:48;4.97;;;3.45;;
34639;SDS011;22600;48.186;11.526;2022-08-01T01:35:23;5.82;;;3.63;;
34639;SDS011;22600;48.186;11.526;2022-08-01T01:37:53;3.90;;;3.15;;
34639;SDS011;22600;48.186;11.526;2022-08-01T01:40:25;3.47;;;3.17;;
34639;SDS011;22600;48.186;11.526;2022-08-01T01:42:52;3.80;;;3.40;;
34639;SDS011;22600;48.186;11.526;2022-08-01T01:45:20;4.30;;;3.50;;
34639;SDS011;22600;48.186;11.526;2022-08-01T01:47:48;4.05;;;3.65;;
34639;SDS011;22600;48.186;11.526;2022-08-01T01:50:15;4.72;;;3.22;;
34639;SDS011;22600;48.186;11.526;2022-08-01T01:52:42;4.22;;;3.22;;
34639;SDS011;22600;48.186;11.526;2022-08-01T01:55:11;3.60;;;3.30;;
34639;SDS011;22600;48.186;11.526;2022-08-01T01:57:39;4.80;;;3.30;;
34639;SDS011;22600;48.186;11.526;2022-08-01T02:00:07;3.70;;;3.40;;
34639;SDS011;22600;48.186;11.526;2022-08-01T02:02:36;3.67;;;3.10;;
34639;SDS011;22600;48.186;11.526;2022-08-01T02:05:02;4.90;;;3.40;;
34639;SDS011;22600;48.186;11.526;2022-08-01T02:07:28;4.80;;;3.30;;
34639;SDS011;22600;48.186;11.526;2022-08-01T02:09:55;3.75;;;3.25;;
34639;SDS011;22600;48.186;11.526;2022-08-01T02:12:22;3.95;;;3.55;;
34639;SDS011;22600;48.186;11.526;2022-08-01T02:14:50;5.13;;;3.40;;
34639;SDS011;22600;48.186;11.526;2022-08-01T02:17:19;4.82;;;3.35;;
34639;SDS011;22600;48.186;11.526;2022-08-01T02:19:46;4.82;;;3.40;;
34639;SDS011;22600;48.186;11.526;2022-08-01T02:22:21;4.00;;;3.33;;
34639;SDS011;22600;48.186;11.526;2022-08-01T02:30:10;4.93;;;3.42;;
34639;SDS011;22600;48.186;11.526;2022-08-01T02:32:49;4.15;;;3.22;;
34639;SDS011;22600;48.186;11.526;2022-08-01T02:35:28;3.40;;;3.10;;
34639;SDS011;22600;48.186;11.526;2022-08-01T02:37:56;11.02;;;3.38;;
34639;SDS011;22600;48.186;11.526;2022-08-01T02:40:23;3.92;;;3.35;;
34639;SDS011;22600;48.186;11.526;2022-08-01T02:42:51;3.70;;;3.38;;
34639;SDS011;22600;48.186;11.526;2022-08-01T02:45:21;4.63;;;3.42;;
34639;SDS011;22600;48.186;11.526;2022-08-01T02:47:49;4.18;;;3.20;;
34639;SDS011;22600;48.186;11.526;2022-08-01T02:50:18;4.70;;;3.55;;
34639;SDS011;22600;48.186;11.526;2022-08-01T02:52:46;3.70;;;3.20;;
34639;SDS011;22600;48.186;11.526;2022-08-01T02:55:15;3.53;;;3.20;;
34639;SDS011;22600;48.186;11.526;2022-08-01T02:57:43;4.00;;;3.10;;
34639;SDS011;22600;48.186;11.526;2022-08-01T03:00:10;3.25;;;2.95;;
34639;SDS011;22600;48.186;11.526;2022-08-01T03:02:36;4.65;;;3.40;;
34639;SDS011;22600;48.186;11.526;2022-08-01T03:05:04;4.22;;;3.50;;
34639;SDS011;22600;48.186;11.526;2022-08-01T03:07:30;3.42;;;3.00;;
34639;SDS011;22600;48.186;11.526;2022-08-01T03:09:58;3.88;;;3.47;;
34639;SDS011;22600;48.186;11.526;2022-08-01T03:12:24;3.88;;;3.45;;
34639;SDS011;22600;48.186;11.526;2022-08-01T03:14:53;3.85;;;2.95;;
34639;SDS011;22600;48.186;11.526;2022-08-01T03:17:22;4.85;;;3.33;;
34639;SDS011;22600;48.186;11.526;2022-08-01T03:19:50;5.35;;;3.17;;
34639;SDS011;22600;48.186;11.526;2022-08-01T03:22:18;4.47;;;3.38;;
34639;SDS011;22600;48.186;11.526;2022-08-01T03:24:45;4.35;;;3.30;;
34639;SDS011;22600;48.186;11.526;2022-08-01T03:27:14;4.32;;;3.35;;
34639;SDS011;22600;48.186;11.526;2022-08-01T03:29:39;3.78;;;3.30;;
34639;SDS011;22600;48.186;11.526;2022-08-01T03:32:08;3.30;;;2.90;;
34639;SDS011;22600;48.186;11.526;2022-08-01T03:34:35;3.80;;;3.33;;
34639;SDS011;22600;48.186;11.526;2022-08-01T03:37:03;3.70;;;3.20;;
34639;SDS011;22600;48.186;11.526;2022-08-01T03:39:37;5.28;;;3.00;;
34639;SDS011;22600;48.186;11.526;2022-08-01T03:42:10;4.07;;;3.30;;
34639;SDS011;22600;48.186;11.526;2022-08-01T03:44:40;4.18;;;3.20;;
34639;SDS011;22600;48.186;11.526;2022-08-01T03:47:09;4.10;;;3.50;;
34639;SDS011;22600;48.186;11.526;2022-08-01T03:49:40;4.15;;;3.60;;
34639;SDS011;22600;48.186;11.526;2022-08-01T03:52:09;5.35;;;3.33;;
34639;SDS011;22600;48.186;11.526;2022-08-01T03:54:36;4.75;;;3.17;;
34639;SDS011;22600;48.186;11.526;2022-08-01T03:57:05;5.38;;;3.53;;
34639;SDS011;22600;48.186;11.526;2022-08-01T03:59:32;4.20;;;3.30;;
34639;SDS011;22600;48.186;11.526;2022-08-01T04:02:01;4.05;;;3.20;;
34639;SDS011;22600;48.186;11.526;2022-08-01T04:04:28;3.63;;;3.00;;
34639;SDS011;22600;48.186;11.526;2022-08-01T04:06:53;4.05;;;3.55;;
34639;SDS011;22600;48.186;11.526;2022-08-01T04:09:19;3.70;;;3.30;;
34639;SDS011;22600;48.186;11.526;2022-08-01T04:11:46;4.75;;;3.63;;
34639;SDS011;22600;48.186;11.526;2022-08-01T04:14:12;3.80;;;3.42;;
34639;SDS011;22600;48.186;11.526;2022-08-01T04:16:38;4.80;;;3.65;;
34639;SDS011;22600;48.186;11.526;2022-08-01T04:19:04;5.28;;;3.40;;
34639;SDS011;22600;48.186;11.526;2022-08-01T04:21:32;4.65;;;3.15;;
34639;SDS011;22600;48.186;11.526;2022-08-01T04:24:00;4.75;;;3.60;;
34639;SDS011;22600;48.186;11.526;2022-08-01T04:26:30;3.83;;;3.40;;
34639;SDS011;22600;48.186;11.526;2022-08-01T04:28:57;4.38;;;3.53;;
34639;SDS011;22600;48.186;11.526;2022-08-01T04:31:25;4.40;;;3.35;;
34639;SDS011;22600;48.186;11.526;2022-08-01T04:33:52;4.70;;;3.20;;
34639;SDS011;22600;48.186;11.526;2022-08-01T04:36:19;4.47;;;3.30;;
34639;SDS011;22600;48.186;11.526;2022-08-01T04:38:49;4.80;;;3.75;;
34639;SDS011;22600;48.186;11.526;2022-08-01T04:41:18;4.95;;;3.40;;
34639;SDS011;22600;48.186;11.526;2022-08-01T04:43:46;4.65;;;3.42;;
34639;SDS011;22600;48.186;11.526;2022-08-01T04:46:11;5.50;;;3.42;;
34639;SDS011;22600;48.186;11.526;2022-08-01T04:48:39;4.55;;;3.20;;
34639;SDS011;22600;48.186;11.526;2022-08-01T04:51:11;4.43;;;3.58;;
34639;SDS011;22600;48.186;11.526;2022-08-01T04:53:40;4.07;;;3.60;;
34639;SDS011;22600;48.186;11.526;2022-08-01T04:56:06;4.63;;;3.67;;
34639;SDS011;22600;48.186;11.526;2022-08-01T04:58:31;5.53;;;3.58;;
34639;SDS011;22600;48.186;11.526;2022-08-01T05:00:57;6.63;;;3.38;;
34639;SDS011;22600;48.186;11.526;2022-08-01T05:03:22;5.63;;;3.28;;
34639;SDS011;22600;48.186;11.526;2022-08-01T05:05:48;4.43;;;3.47;;
34639;SDS011;22600;48.186;11.526;2022-08-01T05:08:14;5.05;;;3.38;;
34639;SDS011;22600;48.186;11.526;2022-08-01T05:10:41;5.25;;;3.30;;
34639;SDS011;22600;48.186;11.526;2022-08-01T05:13:07;5.30;;;3.67;;
34639;SDS011;22600;48.186;11.526;2022-08-01T05:15:33;4.65;;;3.53;;
34639;SDS011;22600;48.186;11.526;2022-08-01T05:18:01;4.90;;;3.35;;
34639;SDS011;22600;48.186;11.526;2022-08-01T05:20:27;4.55;;;3.47;;
34639;SDS011;22600;48.186;11.526;2022-08-01T05:22:53;4.80;;;3.45;;
34639;SDS011;22600;48.186;11.526;2022-08-01T05:25:18;7.15;;;3.60;;
34639;SDS011;22600;48.186;11.526;2022-08-01T05:27:44;5.32;;;3.55;;
34639;SDS011;22600;48.186;11.526;2022-08-01T05:30:09;5.97;;;3.45;;
34639;SDS011;22600;48.186;11.526;2022-08-01T05:32:35;5.50;;;3.40;;
34639;SDS011;22600;48.186;11.526;2022-08-01T05:35:01;5.15;;;3.25;;
34639;SDS011;22600;48.186;11.526;2022-08-01T05:37:28;4.68;;;3.47;;
34639;SDS011;22600;48.186;11.526;2022-08-01T05:39:53;4.57;;;3.35;;
34639;SDS011;22600;48.186;11.526;2022-08-01T05:42:19;4.72;;;3.50;;
34639;SDS011;22600;48.186;11.526;2022-08-01T05:44:45;7.35;;;3.35;;
34639;SDS011;22600;48.186;11.526;2022-08-01T05:47:10;6.20;;;3.65;;
34639;SDS011;22600;48.186;11.526;2022-08-01T05:49:36;4.75;;;3.60;;
34639;SDS011;22600;48.186;11.526;2022-08-01T05:52:01;5.22;;;3.65;;
34639;SDS011;22600;48.186;11.526;2022-08-01T05:54:27;3.70;;;3.20;;
34639;SDS011;22600;48.186;11.526;2022-08-01T05:56:53;5.65;;;3.53;;
34639;SDS011;22600;48.186;11.526;2022-08-01T05:59:20;4.40;;;3.45;;
34639;SDS011;22600;48.186;11.526;2022-08-01T06:01:45;4.68;;;3.40;;
34639;SDS011;22600;48.186;11.526;2022-08-01T06:04:11;5.00;;;3.42;;
34639;SDS011;22600;48.186;11.526;2022-08-01T06:06:37;6.55;;;3.55;;
34639;SDS011;22600;48.186;11.526;2022-08-01T06:09:02;6.68;;;3.78;;
34639;SDS011;22600;48.186;11.526;2022-08-01T06:11:28;6.35;;;3.35;;
34639;SDS011;22600;48.186;11.526;2022-08-01T06:13:53;9.25;;;3.70;;
34639;SDS011;22600;48.186;11.526;2022-08-01T06:16:19;11.60;;;4.20;;
34639;SDS011;22600;48.186;11.526;2022-08-01T06:18:44;7.88;;;4.03;;
34639;SDS011;22600;48.186;11.526;2022-08-01T06:21:10;10.57;;;4.38;;
34639;SDS011;22600;48.186;11.526;2022-08-01T06:23:35;9.93;;;4.15;;
34639;SDS011;22600;48.186;11.526;2022-08-01T06:26:02;9.35;;;3.88;;
34639;SDS011;22600;48.186;11.526;2022-08-01T06:28:27;8.48;;;3.78;;
34639;SDS011;22600;48.186;11.526;2022-08-01T06:30:53;14.30;;;4.50;;
34639;SDS011;22600;48.186;11.526;2022-08-01T06:33:19;9.50;;;4.25;;
34639;SDS011;22600;48.186;11.526;2022-08-01T06:35:45;8.80;;;4.05;;
34639;SDS011;22600;48.186;11.526;2022-08-01T06:38:11;11.50;;;4.55;;
34639;SDS011;22600;48.186;11.526;2022-08-01T06:40:36;22.25;;;5.05;;
34639;SDS011;22600;48.186;11.526;2022-08-01T06:43:03;13.82;;;4.90;;
34639;SDS011;22600;48.186;11.526;2022-08-01T06:45:28;17.67;;;5.53;;
34639;SDS011;22600;48.186;11.526;2022-08-01T06:47:54;19.75;;;4.88;;
34639;SDS011;22600;48.186;11.526;2022-08-01T06:50:19;12.68;;;4.70;;
34639;SDS011;22600;48.186;11.526;2022-08-01T06:52:45;13.40;;;4.68;;
34639;SDS011;22600;48.186;11.526;2022-08-01T06:55:11;14.50;;;5.22;;
34639;SDS011;22600;48.186;11.526;2022-08-01T06:57:36;11.02;;;4.50;;
34639;SDS011;22600;48.186;11.526;2022-08-01T07:00:10;10.45;;;4.28;;
34639;SDS011;22600;48.186;11.526;2022-08-01T07:02:37;10.20;;;4.28;;
34639;SDS011;22600;48.186;11.526;2022-08-01T07:05:03;9.73;;;4.03;;
34639;SDS011;22600;48.186;11.526;2022-08-01T07:07:29;6.80;;;3.67;;
34639;SDS011;22600;48.186;11.526;2022-08-01T07:09:55;7.40;;;3.67;;
34639;SDS011;22600;48.186;11.526;2022-08-01T07:12:21;11.05;;;3.97;;
34639;SDS011;22600;48.186;11.526;2022-08-01T07:14:47;6.78;;;3.47;;
34639;SDS011;22600;48.186;11.526;2022-08-01T07:17:12;8.38;;;3.63;;
34639;SDS011;22600;48.186;11.526;2022-08-01T07:19:38;5.82;;;3.65;;
34639;SDS011;22600;48.186;11.526;2022-08-01T07:22:03;5.18;;;3.83;;
34639;SDS011;22600;48.186;11.526;2022-08-01T07:24:29;5.00;;;3.50;;
34639;SDS011;22600;48.186;11.526;2022-08-01T07:26:55;5.60;;;3.60;;
34639;SDS011;22600;48.186;11.526;2022-08-01T07:29:23;8.73;;;3.63;;
34639;SDS011;22600;48.186;11.526;2022-08-01T07:31:50;6.22;;;3.40;;
34639;SDS011;22600;48.186;11.526;2022-08-01T07:34:17;5.57;;;3.90;;
34639;SDS011;22600;48.186;11.526;2022-08-01T07:36:43;5.22;;;3.95;;
34639;SDS011;22600;48.186;11.526;2022-08-01T07:39:08;6.35;;;3.58;;
34639;SDS011;22600;48.186;11.526;2022-08-01T07:41:34;5.05;;;3.67;;
34639;SDS011;22600;48.186;11.526;2022-08-01T07:44:00;4.18;;;3.70;;
34639;SDS011;22600;48.186;11.526;2022-08-01T07:46:25;4.50;;;3.45;;
34639;SDS011;22600;48.186;11.526;2022-08-01T07:48:50;6.53;;;3.78;;
34639;SDS011;22600;48.186;11.526;2022-08-01T07:51:16;5.07;;;3.80;;
34639;SDS011;22600;48.186;11.526;2022-08-01T07:53:42;5.63;;;3.70;;
34639;SDS011;22600;48.186;11.526;2022-08-01T07:56:07;6.68;;;3.90;;
34639;SDS011;22600;48.186;11.526;2022-08-01T07:58:33;6.53;;;3.65;;
34639;SDS011;22600;48.186;11.526;2022-08-01T08:00:59;8.38;;;4.45;;
34639;SDS011;22600;48.186;11.526;2022-08-01T08:03:25;6.68;;;4.05;;
34639;SDS011;22600;48.186;11.526;2022-08-01T08:05:51;11.18;;;4.75;;
34639;SDS011;22600;48.186;11.526;2022-08-01T08:08:17;9.57;;;4.80;;
34639;SDS011;22600;48.186;11.526;2022-08-01T08:10:43;14.25;;;5.13;;
34639;SDS011;22600;48.186;11.526;2022-08-01T08:13:09;11.85;;;4.65;;
34639;SDS011;22600;48.186;11.526;2022-08-01T08:15:34;8.25;;;4.88;;
34639;SDS011;22600;48.186;11.526;2022-08-01T08:18:00;8.30;;;4.90;;
34639;SDS011;22600;48.186;11.526;2022-08-01T08:20:27;9.38;;;4.70;;
34639;SDS011;22600;48.186;11.526;2022-08-01T08:22:54;9.18;;;5.10;;
34639;SDS011;22600;48.186;11.526;2022-08-01T08:25:20;9.80;;;4.45;;
34639;SDS011;22600;48.186;11.526;2022-08-01T08:27:47;7.93;;;4.65;;
34639;SDS011;22600;48.186;11.526;2022-08-01T08:30:13;9.27;;;4.28;;
34639;SDS011;22600;48.186;11.526;2022-08-01T08:32:38;7.18;;;4.13;;
34639;SDS011;22600;48.186;11.526;2022-08-01T08:35:05;8.00;;;4.40;;
34639;SDS011;22600;48.186;11.526;2022-08-01T08:37:32;8.43;;;4.07;;
34639;SDS011;22600;48.186;11.526;2022-08-01T08:39:59;6.22;;;3.78;;
34639;SDS011;22600;48.186;11.526;2022-08-01T08:42:24;7.47;;;4.15;;
34639;SDS011;22600;48.186;11.526;2022-08-01T08:44:50;8.18;;;4.25;;
34639;SDS011;22600;48.186;11.526;2022-08-01T08:47:16;12.07;;;4.30;;
34639;SDS011;22600;48.186;11.526;2022-08-01T08:49:43;6.70;;;4.13;;
34639;SDS011;22600;48.186;11.526;2022-08-01T08:52:10;6.25;;;4.03;;
34639;SDS011;22600;48.186;11.526;2022-08-01T08:54:37;5.82;;;4.22;;
34639;SDS011;22600;48.186;11.526;2022-08-01T08:57:03;6.40;;;4.00;;
34639;SDS011;22600;48.186;11.526;2022-08-01T08:59:29;5.38;;;4.15;;
34639;SDS011;22600;48.186;11.526;2022-08-01T09:01:56;7.43;;;4.20;;
34639;SDS011;22600;48.186;11.526;2022-08-01T09:04:23;7.07;;;3.92;;
34639;SDS011;22600;48.186;11.526;2022-08-01T09:06:49;5.32;;;4.10;;
34639;SDS011;22600;48.186;11.526;2022-08-01T09:09:15;6.18;;;3.75;;
34639;SDS011;22600;48.186;11.526;2022-08-01T09:11:41;6.82;;;3.95;;
34639;SDS011;22600;48.186;11.526;2022-08-01T09:14:17;5.07;;;3.80;;
34639;SDS011;22600;48.186;11.526;2022-08-01T09:17:04;7.75;;;4.00;;
34639;SDS011;22600;48.186;11.526;2022-08-01T09:19:39;7.72;;;3.97;;
34639;SDS011;22600;48.186;11.526;2022-08-01T09:22:13;5.30;;;3.90;;
34639;SDS011;22600;48.186;11.526;2022-08-01T09:24:55;5.32;;;3.65;;
34639;SDS011;22600;48.186;11.526;2022-08-01T09:27:26;4.53;;;3.60;;
34639;SDS011;22600;48.186;11.526;2022-08-01T09:29:52;4.90;;;3.67;;
34639;SDS011;22600;48.186;11.526;2022-08-01T09:32:19;6.45;;;3.78;;
34639;SDS011;22600;48.186;11.526;2022-08-01T09:34:45;5.05;;;3.53;;
34639;SDS011;22600;48.186;11.526;2022-08-01T09:37:13;4.68;;;3.35;;
34639;SDS011;22600;48.186;11.526;2022-08-01T09:39:42;5.70;;;3.90;;
34639;SDS011;22600;48.186;11.526;2022-08-01T09:42:20;4.93;;;3.38;;
34639;SDS011;22600;48.186;11.526;2022-08-01T09:44:47;5.88;;;3.78;;
34639;SDS011;22600;48.186;11.526;2022-08-01T09:47:14;4.95;;;3.67;;
34639;SDS011;22600;48.186;11.526;2022-08-01T09:49:41;5.13;;;3.38;;
34639;SDS011;22600;48.186;11.526;2022-08-01T09:52:15;5.55;;;3.65;;
34639;SDS011;22600;48.186;11.526;2022-08-01T09:54:44;5.50;;;3.30;;
34639;SDS011;22600;48.186;11.526;2022-08-01T09:57:20;5.05;;;3.28;;
34639;SDS011;22600;48.186;11.526;2022-08-01T09:59:47;5.05;;;3.55;;
34639;SDS011;22600;48.186;11.526;2022-08-01T10:02:26;4.22;;;3.38;;
34639;SDS011;22600;48.186;11.526;2022-08-01T10:04:54;4.10;;;3.25;;
34639;SDS011;22600;48.186;11.526;2022-08-01T10:07:20;6.13;;;3.30;;
34639;SDS011;22600;48.186;11.526;2022-08-01T10:09:46;7.00;;;3.38;;
34639;SDS011;22600;48.186;11.526;2022-08-01T10:12:13;4.82;;;3.40;;
34639;SDS011;22600;48.186;11.526;2022-08-01T10:14:41;4.43;;;3.45;;
34639;SDS011;22600;48.186;11.526;2022-08-01T10:17:09;6.85;;;3.33;;
34639;SDS011;22600;48.186;11.526;2022-08-01T10:19:37;5.03;;;3.20;;
34639;SDS011;22600;48.186;11.526;2022-08-01T10:22:08;5.82;;;3.13;;
34639;SDS011;22600;48.186;11.526;2022-08-01T10:24:36;5.90;;;3.17;;
34639;SDS011;22600;48.186;11.526;2022-08-01T10:27:05;5.47;;;3.08;;
34639;SDS011;22600;48.186;11.526;2022-08-01T10:29:34;4.90;;;3.17;;
34639;SDS011;22600;48.186;11.526;2022-08-01T10:32:05;3.88;;;2.97;;
34639;SDS011;22600;48.186;11.526;2022-08-01T10:34:31;4.82;;;3.30;;
34639;SDS011;22600;48.186;11.526;2022-08-01T10:36:58;5.40;;;3.30;;
34639;SDS011;22600;48.186;11.526;2022-08-01T10:39:25;4.93;;;3.30;;
34639;SDS011;22600;48.186;11.526;2022-08-01T10:41:53;4.35;;;3.10;;
34639;SDS011;22600;48.186;11.526;2022-08-01T10:44:20;5.22;;;2.85;;
34639;SDS011;22600;48.186;11.526;2022-08-01T10:46:46;3.78;;;3.00;;
34639;SDS011;22600;48.186;11.526;2022-08-01T10:49:17;4.07;;;2.70;;
34639;SDS011;22600;48.186;11.526;2022-08-01T10:51:47;4.18;;;2.85;;
34639;SDS011;22600;48.186;11.526;2022-08-01T10:54:13;4.05;;;2.80;;
34639;SDS011;22600;48.186;11.526;2022-08-01T10:56:40;3.88;;;2.63;;
34639;SDS011;22600;48.186;11.526;2022-08-01T10:59:07;4.25;;;3.00;;
34639;SDS011;22600;48.186;11.526;2022-08-01T11:01:33;5.28;;;2.88;;
34639;SDS011;22600;48.186;11.526;2022-08-01T11:06:42;4.25;;;2.90;;
34639;SDS011;22600;48.186;11.526;2022-08-01T11:11:58;4.75;;;2.85;;
34639;SDS011;22600;48.186;11.526;2022-08-01T11:14:31;5.03;;;2.65;;
34639;SDS011;22600;48.186;11.526;2022-08-01T11:17:29;4.45;;;2.70;;
34639;SDS011;22600;48.186;11.526;2022-08-01T11:30:41;4.40;;;2.77;;
34639;SDS011;22600;48.186;11.526;2022-08-01T11:33:07;6.53;;;3.15;;
34639;SDS011;22600;48.186;11.526;2022-08-01T11:35:34;5.25;;;2.35;;
34639;SDS011;22600;48.186;11.526;2022-08-01T11:49:24;3.20;;;2.25;;
34639;SDS011;22600;48.186;11.526;2022-08-01T11:54:33;3.50;;;2.28;;
34639;SDS011;22600;48.186;11.526;2022-08-01T11:57:09;3.00;;;2.25;;
34639;SDS011;22600;48.186;11.526;2022-08-01T11:59:43;3.05;;;2.13;;
34639;SDS011;22600;48.186;11.526;2022-08-01T12:02:15;4.00;;;2.42;;
34639;SDS011;22600;48.186;11.526;2022-08-01T12:04:52;6.35;;;2.50;;
34639;SDS011;22600;48.186;11.526;2022-08-01T12:07:21;2.90;;;2.22;;
34639;SDS011;22600;48.186;11.526;2022-08-01T12:09:48;3.10;;;2.22;;
34639;SDS011;22600;48.186;11.526;2022-08-01T12:12:21;6.50;;;2.60;;
34639;SDS011;22600;48.186;11.526;2022-08-01T12:14:52;7.07;;;2.80;;
34639;SDS011;22600;48.186;11.526;2022-08-01T12:17:35;13.35;;;2.78;;
34639;SDS011;22600;48.186;11.526;2022-08-01T12:20:07;6.93;;;2.63;;
34639;SDS011;22600;48.186;11.526;2022-08-01T12:22:34;9.93;;;3.20;;
34639;SDS011;22600;48.186;11.526;2022-08-01T12:27:35;9.63;;;2.90;;
34639;SDS011;22600;48.186;11.526;2022-08-01T12:30:03;11.18;;;3.20;;
34639;SDS011;22600;48.186;11.526;2022-08-01T12:32:31;7.72;;;3.00;;
34639;SDS011;22600;48.186;11.526;2022-08-01T12:37:37;13.52;;;3.65;;
34639;SDS011;22600;48.186;11.526;2022-08-01T12:42:36;11.88;;;3.00;;
34639;SDS011;22600;48.186;11.526;2022-08-01T12:45:04;8.00;;;2.88;;
34639;SDS011;22600;48.186;11.526;2022-08-01T12:47:34;11.65;;;3.50;;
34639;SDS011;22600;48.186;11.526;2022-08-01T12:50:02;16.85;;;3.28;;
34639;SDS011;22600;48.186;11.526;2022-08-01T12:52:29;6.47;;;3.00;;
34639;SDS011;22600;48.186;11.526;2022-08-01T12:54:59;8.10;;;2.70;;
34639;SDS011;22600;48.186;11.526;2022-08-01T12:57:30;8.57;;;2.40;;
34639;SDS011;22600;48.186;11.526;2022-08-01T13:00:10;7.70;;;2.63;;
34639;SDS011;22600;48.186;11.526;2022-08-01T13:02:38;6.32;;;2.78;;
34639;SDS011;22600;48.186;11.526;2022-08-01T13:05:04;11.82;;;2.80;;
34639;SDS011;22600;48.186;11.526;2022-08-01T13:07:41;5.85;;;2.90;;
34639;SDS011;22600;48.186;11.526;2022-08-01T13:10:10;9.82;;;3.00;;
34639;SDS011;22600;48.186;11.526;2022-08-01T13:12:36;7.93;;;2.55;;
34639;SDS011;22600;48.186;11.526;2022-08-01T13:15:18;10.45;;;2.72;;
34639;SDS011;22600;48.186;11.526;2022-08-01T13:17:48;10.27;;;2.75;;
34639;SDS011;22600;48.186;11.526;2022-08-01T13:20:24;6.30;;;2.50;;
34639;SDS011;22600;48.186;11.526;2022-08-01T13:22:51;7.72;;;2.30;;
34639;SDS011;22600;48.186;11.526;2022-08-01T13:25:17;4.80;;;2.00;;
34639;SDS011;22600;48.186;11.526;2022-08-01T13:27:43;6.32;;;2.00;;
34639;SDS011;22600;48.186;11.526;2022-08-01T13:30:18;7.10;;;2.40;;
34639;SDS011;22600;48.186;11.526;2022-08-01T13:32:57;4.95;;;1.88;;
34639;SDS011;22600;48.186;11.526;2022-08-01T13:35:23;4.43;;;2.10;;
34639;SDS011;22600;48.186;11.526;2022-08-01T13:37:49;5.95;;;2.05;;
34639;SDS011;22600;48.186;11.526;2022-08-01T13:40:23;2.83;;;1.67;;
34639;SDS011;22600;48.186;11.526;2022-08-01T13:42:50;4.07;;;1.65;;
34639;SDS011;22600;48.186;11.526;2022-08-01T13:45:15;3.58;;;1.70;;
34639;SDS011;22600;48.186;11.526;2022-08-01T13:47:41;2.55;;;1.70;;
34639;SDS011;22600;48.186;11.526;2022-08-01T13:50:07;2.95;;;1.70;;
34639;SDS011;22600;48.186;11.526;2022-08-01T13:52:33;7.22;;;2.28;;
34639;SDS011;22600;48.186;11.526;2022-08-01T13:54:59;4.60;;;1.98;;
34639;SDS011;22600;48.186;11.526;2022-08-01T13:57:26;3.00;;;1.67;;
34639;SDS011;22600;48.186;11.526;2022-08-01T13:59:52;4.75;;;1.58;;
34639;SDS011;22600;48.186;11.526;2022-08-01T14:02:18;4.50;;;1.60;;
34639;SDS011;22600;48.186;11.526;2022-08-01T14:04:44;8.85;;;2.05;;
34639;SDS011;22600;48.186;11.526;2022-08-01T14:07:09;9.15;;;2.10;;
34639;SDS011;22600;48.186;11.526;2022-08-01T14:09:35;7.07;;;1.90;;
34639;SDS011;22600;48.186;11.526;2022-08-01T14:12:01;5.63;;;1.80;;
34639;SDS011;22600;48.186;11.526;2022-08-01T14:14:27;2.03;;;1.60;;
34639;SDS011;22600;48.186;11.526;2022-08-01T14:16:53;3.92;;;1.60;;
34639;SDS011;22600;48.186;11.526;2022-08-01T14:19:18;3.00;;;1.50;;
34639;SDS011;22600;48.186;11.526;2022-08-01T14:21:44;3.08;;;1.50;;
34639;SDS011;22600;48.186;11.526;2022-08-01T14:24:10;3.03;;;1.50;;
34639;SDS011;22600;48.186;11.526;2022-08-01T14:26:35;2.25;;;1.60;;
34639;SDS011;22600;48.186;11.526;2022-08-01T14:29:01;3.83;;;1.63;;
34639;SDS011;22600;48.186;11.526;2022-08-01T14:31:26;3.15;;;1.60;;
34639;SDS011;22600;48.186;11.526;2022-08-01T14:33:54;2.78;;;1.77;;
34639;SDS011;22600;48.186;11.526;2022-08-01T14:36:20;3.10;;;1.67;;
34639;SDS011;22600;48.186;11.526;2022-08-01T14:38:45;4.15;;;1.90;;
34639;SDS011;22600;48.186;11.526;2022-08-01T14:41:11;5.35;;;1.75;;
34639;SDS011;22600;48.186;11.526;2022-08-01T14:43:36;2.97;;;1.60;;
34639;SDS011;22600;48.186;11.526;2022-08-01T14:46:02;3.10;;;2.00;;
34639;SDS011;22600;48.186;11.526;2022-08-01T14:48:28;3.30;;;1.80;;
34639;SDS011;22600;48.186;11.526;2022-08-01T14:50:54;5.85;;;2.20;;
34639;SDS011;22600;48.186;11.526;2022-08-01T14:53:20;3.83;;;2.15;;
34639;SDS011;22600;48.186;11.526;2022-08-01T14:55:45;4.68;;;2.10;;
34639;SDS011;22600;48.186;11.526;2022-08-01T14:58:11;3.92;;;2.10;;
34639;SDS011;22600;48.186;11.526;2022-08-01T15:00:36;5.88;;;2.20;;
34639;SDS011;22600;48.186;11.526;2022-08-01T15:03:02;4.63;;;2.40;;
34639;SDS011;22600;48.186;11.526;2022-08-01T15:05:28;8.20;;;2.30;;
34639;SDS011;22600;48.186;11.526;2022-08-01T15:07:54;4.65;;;2.45;;
34639;SDS011;22600;48.186;11.526;2022-08-01T15:10:19;3.88;;;2.15;;
34639;SDS011;22600;48.186;11.526;2022-08-01T15:12:46;6.03;;;2.90;;
34639;SDS011;22600;48.186;11.526;2022-08-01T15:15:11;4.55;;;2.30;;
34639;SDS011;22600;48.186;11.526;2022-08-01T15:17:37;3.42;;;2.20;;
34639;SDS011;22600;48.186;11.526;2022-08-01T15:20:04;4.70;;;2.10;;
34639;SDS011;22600;48.186;11.526;2022-08-01T15:22:31;4.45;;;2.28;;